createdAt,value
2022-10-21T00:41:40.910Z,96521.13
2022-10-21T00:44:13.864Z,96512.66
2022-10-21T00:46:47.054Z,96515.72
2022-10-21T00:49:19.978Z,96506.22
2022-10-21T00:51:53.164Z,96513.09
2022-10-21T00:54:25.582Z,96511.44
2022-10-21T00:56:58.237Z,96506.63
2022-10-21T00:59:28.580Z,96503.41
2022-10-21T01:01:57.337Z,96499.56
2022-10-21T01:04:26.729Z,96492.94
2022-10-21T01:06:56.045Z,96485.69
2022-10-21T01:09:26.356Z,96485.69
2022-10-21T01:11:56.735Z,96478.81
2022-10-21T02:02:03.858Z,96442.44
2022-10-21T02:12:41.539Z,96439.38
2022-10-21T02:15:11.967Z,96441.41
2022-10-21T02:17:47.391Z,96439.38
2022-10-21T02:20:18.177Z,96443.03
2022-10-21T02:22:49.881Z,96437.34
2022-10-21T02:25:22.024Z,96440.63
2022-10-21T02:27:51.608Z,96429.09
2022-10-21T02:30:21.168Z,96432.75
2022-10-21T02:32:59.096Z,96438.59
2022-10-21T02:35:36.327Z,96444.44
2022-10-21T02:38:12.515Z,96442.41
2022-10-21T02:40:47.116Z,96448.25
2022-10-21T02:43:20.910Z,96433.09
2022-10-21T02:45:50.802Z,96434.47
2022-10-21T02:48:21.227Z,96439.50
2022-10-21T02:50:50.519Z,96443.75
2022-10-21T02:53:20.743Z,96434.84
2022-10-21T02:55:49.766Z,96418.88
2022-10-21T02:58:21.799Z,96399.72
2022-10-21T03:00:51.822Z,96402.94
2022-10-21T03:03:22.823Z,96400.91
2022-10-21T03:05:51.793Z,96397.84
2022-10-21T03:08:20.517Z,96385.91
2022-10-21T03:10:53.197Z,96379.41
2022-10-21T03:13:22.496Z,96375.78
2022-10-21T03:15:52.008Z,96376.38
2022-10-21T03:18:22.717Z,96366.66
2022-10-21T03:20:54.450Z,96364.03
2022-10-21T03:23:25.938Z,96355.13
2022-10-21T03:25:54.947Z,96353.53
2022-10-21T03:28:24.845Z,96353.53
2022-10-21T03:30:53.858Z,96360.97
2022-10-21T03:33:25.472Z,96369.44
2022-10-21T03:35:54.123Z,96357.09
2022-10-21T03:38:23.042Z,96347.44
2022-10-21T03:40:52.413Z,96345.81
2022-10-21T03:43:21.974Z,96343.19
2022-10-21T03:45:52.628Z,96336.31
2022-10-21T04:20:52.615Z,96310.94
2022-10-21T04:23:23.163Z,96300.44
2022-10-21T04:25:56.002Z,96298.84
2022-10-21T04:28:28.798Z,96297.22
2022-10-21T04:30:58.257Z,96292.19
2022-10-21T04:33:27.613Z,96280.88
2022-10-21T04:41:56.479Z,96283.94
2022-10-21T04:44:25.616Z,96278.69
2022-10-21T04:49:42.295Z,96269.81
2022-10-21T04:52:13.715Z,96268.19
2022-10-21T05:35:45.227Z,96294.06
2022-10-21T05:38:12.908Z,96302.19
2022-10-21T10:45:54.605Z,96334.38
2022-10-21T11:13:52.680Z,96388.59
2022-10-21T11:20:02.641Z,96376.13
2022-10-21T11:22:43.655Z,96380.16
2022-10-21T11:25:26.285Z,96382.09
2022-10-21T13:21:24.732Z,96376.00
2022-10-21T15:16:21.351Z,96329.91
2022-10-21T16:59:19.118Z,96362.50
2022-10-21T17:01:47.278Z,96351.63
2022-10-21T17:04:16.150Z,96353.69
2022-10-21T17:06:44.605Z,96350.47
2022-10-21T17:09:12.978Z,96346.47
2022-10-21T17:11:42.773Z,96349.34
2022-10-21T17:14:16.786Z,96349.78
2022-10-21T17:16:46.916Z,96343.97
2022-10-21T17:19:15.423Z,96352.28
2022-10-21T17:21:45.419Z,96361.47
2022-10-21T17:24:15.615Z,96362.72
2022-10-21T17:26:43.793Z,96363.75
